Terminal Aerodrome Forecast
Issued by NWS

Current Version | Previous Version | Text Only | Print | Product List | Glossary On
Versions: 1 2 3 4 5 6 7 8 9 10 11 12 13 14 15 16 17 18 19 20 21 22 23 24 25 26 27 28 29
000
FTUS41 KPBZ 032000 AAB
TAFFKL
TAF AMD
KFKL 032032Z 0321/0418 17010KT 4SM -FZRA BR OVC015
     FM040000 19012KT 2SM -RA OVC005 WS020/21045KT
     FM040900 27008KT 2SM -SN OVC007
      AMD LTD TO CLD VIS AND WIND=

USA.gov is the U.S. government's official web portal to all federal, state and local government web resources and services.